Time;durP1;ratioP1;P1;durP2;ratioP2;P2;SDS_P1;SDS_P2;PMS_P1;PMS_P2;Temp;Humidity;BMP_temperature;BMP_pressure;BME280_temperature;BME280_humidity;BME280_pressure;Samples;Min_cycle;Max_cycle;Signal;HPM_P1;HPM_P2
2023/08/20 00:01:23;;;;;;;14.57;4.47;;;17.20;99.90;;;;;;5082558;28;20078;-56
2023/08/20 00:03:51;;;;;;;9.65;4.07;;;17.30;99.90;;;;;;5079922;28;20621;-57
2023/08/20 00:06:18;;;;;;;12.38;4.28;;;17.20;99.90;;;;;;5100714;28;20047;-61
2023/08/20 00:08:43;;;;;;;12.27;4.50;;;17.10;99.90;;;;;;5098533;28;20082;-57
2023/08/20 00:11:11;;;;;;;12.40;4.80;;;17.10;99.90;;;;;;5100386;28;20044;-57
2023/08/20 00:13:36;;;;;;;8.43;3.47;;;17.10;99.90;;;;;;5080677;28;20044;-56
2023/08/20 00:16:03;;;;;;;9.98;4.50;;;17.20;99.90;;;;;;5081280;28;20123;-57
2023/08/20 00:18:29;;;;;;;11.20;4.03;;;17.10;99.90;;;;;;5098819;28;20583;-57
2023/08/20 00:20:55;;;;;;;15.82;5.68;;;17.00;99.90;;;;;;5097990;28;20044;-57
2023/08/20 00:23:22;;;;;;;8.57;4.40;;;17.00;99.90;;;;;;5100305;28;20029;-57
2023/08/20 00:25:48;;;;;;;11.60;4.20;;;17.00;99.90;;;;;;5098087;28;20223;-57
2023/08/20 00:28:13;;;;;;;9.98;4.00;;;17.10;99.90;;;;;;5099735;28;20044;-58
2023/08/20 00:30:39;;;;;;;12.38;4.78;;;17.10;99.90;;;;;;5098691;28;20047;-57
2023/08/20 00:33:05;;;;;;;10.32;3.97;;;17.10;99.90;;;;;;5099338;28;20040;-58
2023/08/20 00:35:31;;;;;;;12.45;4.85;;;17.10;99.90;;;;;;5099613;28;20052;-57
2023/08/20 00:37:56;;;;;;;8.75;3.92;;;17.00;99.90;;;;;;5098016;28;20425;-57
2023/08/20 00:40:22;;;;;;;9.55;4.07;;;17.00;99.90;;;;;;5099986;28;20035;-57
2023/08/20 00:42:48;;;;;;;9.38;4.10;;;17.00;99.90;;;;;;5097617;28;20044;-57
2023/08/20 00:45:14;;;;;;;9.23;4.00;;;16.90;99.90;;;;;;5099677;28;20052;-57
2023/08/20 00:47:40;;;;;;;11.38;3.97;;;17.00;99.90;;;;;;5098080;28;20032;-57
2023/08/20 00:50:07;;;;;;;12.30;4.13;;;17.00;99.90;;;;;;5099050;28;20032;-57
2023/08/20 00:52:34;;;;;;;10.95;3.95;;;17.00;99.90;;;;;;5099096;28;20044;-56
2023/08/20 00:55:06;;;;;;;11.98;4.03;;;17.00;99.90;;;;;;5097224;28;20051;-57
2023/08/20 00:57:32;;;;;;;9.45;4.35;;;16.90;99.90;;;;;;5079618;28;20048;-57
2023/08/20 00:59:58;;;;;;;11.45;4.65;;;16.80;99.90;;;;;;5077006;28;20056;-57
2023/08/20 01:02:23;;;;;;;9.15;4.20;;;16.80;99.90;;;;;;5078973;28;20059;-57
2023/08/20 01:04:50;;;;;;;13.43;5.55;;;16.80;99.90;;;;;;5056063;28;20080;-57
2023/08/20 01:07:30;;;;;;;10.07;4.25;;;16.70;99.90;;;;;;5058610;28;20105;-57
2023/08/20 01:10:02;;;;;;;9.27;4.35;;;16.70;99.90;;;;;;5059285;28;20096;-56
2023/08/20 01:12:29;;;;;;;10.70;3.92;;;16.60;99.90;;;;;;5056727;28;20041;-56
2023/08/20 01:14:54;;;;;;;12.57;4.32;;;16.70;99.90;;;;;;5059273;28;20055;-57
2023/08/20 01:17:20;;;;;;;11.02;4.13;;;16.70;99.90;;;;;;5057170;28;20106;-57
2023/08/20 01:19:47;;;;;;;11.75;4.25;;;16.60;99.90;;;;;;5058417;28;20052;-57
2023/08/20 01:22:29;;;;;;;11.10;4.18;;;16.60;99.90;;;;;;5057535;28;20492;-56
2023/08/20 01:25:21;;;;;;;8.07;3.70;;;16.60;99.90;;;;;;5057108;28;20094;-57
2023/08/20 01:28:14;;;;;;;10.30;4.40;;;16.70;99.90;;;;;;5058984;28;20045;-58
2023/08/20 01:30:41;;;;;;;10.13;3.92;;;16.70;99.90;;;;;;5057119;28;20060;-57
2023/08/20 01:33:08;;;;;;;11.20;4.85;;;16.60;99.90;;;;;;5057991;28;20496;-57
2023/08/20 01:35:34;;;;;;;11.48;5.00;;;16.60;99.90;;;;;;5058519;28;20052;-57
2023/08/20 01:37:59;;;;;;;10.70;5.38;;;16.60;99.90;;;;;;5056773;28;20056;-57
2023/08/20 01:40:25;;;;;;;9.88;4.32;;;16.60;99.90;;;;;;5058709;28;20095;-56
2023/08/20 01:42:50;;;;;;;10.02;4.60;;;16.50;99.90;;;;;;5056432;28;20044;-56
2023/08/20 01:45:18;;;;;;;9.52;4.38;;;16.60;99.90;;;;;;5058325;28;20128;-57
2023/08/20 01:47:43;;;;;;;10.75;4.28;;;16.50;99.90;;;;;;5056857;28;20108;-57
2023/08/20 01:50:10;;;;;;;8.00;4.10;;;16.50;99.90;;;;;;5056360;28;20072;-57
2023/08/20 01:52:35;;;;;;;9.40;4.40;;;16.40;99.90;;;;;;5058301;28;20041;-56
2023/08/20 01:55:01;;;;;;;10.00;4.40;;;16.50;99.90;;;;;;5057200;28;20091;-57
2023/08/20 01:57:27;;;;;;;10.82;4.70;;;16.50;99.90;;;;;;5078723;28;20037;-56
2023/08/20 01:59:52;;;;;;;9.82;4.45;;;16.50;99.90;;;;;;5076421;28;20072;-56
2023/08/20 02:02:18;;;;;;;10.40;4.43;;;16.50;99.90;;;;;;5078413;28;20888;-56
2023/08/20 02:04:43;;;;;;;10.65;4.43;;;16.50;99.90;;;;;;5085616;28;20040;-57
2023/08/20 02:07:09;;;;;;;9.65;4.53;;;16.40;99.90;;;;;;5097910;28;20056;-57
2023/08/20 02:09:35;;;;;;;10.50;4.38;;;16.40;99.90;;;;;;5098089;28;20060;-56
2023/08/20 02:12:00;;;;;;;8.80;4.20;;;16.40;99.90;;;;;;5096906;28;20051;-57
2023/08/20 02:14:28;;;;;;;11.38;4.35;;;16.30;99.90;;;;;;5098283;28;20848;-56
2023/08/20 02:16:54;;;;;;;7.53;4.30;;;16.40;99.90;;;;;;5096361;28;20047;-57
2023/08/20 02:19:19;;;;;;;9.82;4.63;;;16.30;99.90;;;;;;5098085;28;20417;-57
2023/08/20 02:21:45;;;;;;;9.25;4.50;;;16.30;99.90;;;;;;5096427;28;20044;-57
2023/08/20 02:24:11;;;;;;;9.02;4.35;;;16.40;99.90;;;;;;5097989;28;20044;-57
2023/08/20 02:26:37;;;;;;;11.10;4.10;;;16.40;99.90;;;;;;5097356;28;20040;-57
2023/08/20 02:29:03;;;;;;;8.60;4.18;;;16.30;99.90;;;;;;5096991;28;20073;-61
2023/08/20 02:31:28;;;;;;;8.23;4.15;;;16.30;99.90;;;;;;5098771;28;20071;-57
2023/08/20 02:33:54;;;;;;;11.23;5.28;;;16.20;99.90;;;;;;5078153;28;20071;-60
2023/08/20 02:36:20;;;;;;;10.48;5.68;;;16.20;99.90;;;;;;5098205;28;20439;-59
2023/08/20 02:38:46;;;;;;;14.60;4.90;;;16.20;99.90;;;;;;5096424;28;20052;-58
2023/08/20 02:41:12;;;;;;;11.38;4.35;;;16.20;99.90;;;;;;5099522;28;20066;-57
2023/08/20 02:43:37;;;;;;;13.52;4.57;;;16.20;99.90;;;;;;5100761;28;20059;-56
2023/08/20 02:46:03;;;;;;;9.65;4.70;;;16.30;99.90;;;;;;5101382;28;20066;-57
2023/08/20 02:48:30;;;;;;;10.23;5.45;;;16.20;99.90;;;;;;5101909;28;20044;-57
2023/08/20 02:50:56;;;;;;;9.82;5.53;;;16.10;99.90;;;;;;5100082;28;20107;-57
2023/08/20 02:53:22;;;;;;;13.32;5.07;;;16.10;99.90;;;;;;5102296;28;20036;-58
2023/08/20 02:55:48;;;;;;;11.32;5.25;;;16.10;99.90;;;;;;5093016;28;20056;-57
2023/08/20 02:58:13;;;;;;;12.05;5.57;;;16.10;99.90;;;;;;5081443;28;20041;-57
2023/08/20 03:00:39;;;;;;;10.85;6.50;;;16.00;99.90;;;;;;5080217;28;20091;-57
2023/08/20 03:03:08;;;;;;;9.93;5.03;;;16.00;99.90;;;;;;5080733;28;20043;-57
2023/08/20 03:05:33;;;;;;;10.82;5.68;;;16.00;99.90;;;;;;5081490;28;20056;-57
2023/08/20 03:07:59;;;;;;;12.27;5.30;;;16.20;99.90;;;;;;5079480;28;20108;-57
2023/08/20 03:10:29;;;;;;;11.98;5.30;;;16.00;99.90;;;;;;5081715;28;20040;-57
2023/08/20 03:12:55;;;;;;;12.00;6.13;;;16.10;99.90;;;;;;5079367;28;20032;-57
2023/08/20 03:15:21;;;;;;;12.90;6.40;;;16.10;99.90;;;;;;5081196;28;20166;-57
2023/08/20 03:17:46;;;;;;;10.95;6.25;;;16.10;99.90;;;;;;5079806;28;20090;-57
2023/08/20 03:20:12;;;;;;;12.45;6.00;;;16.00;99.90;;;;;;5080218;28;20051;-57
2023/08/20 03:22:38;;;;;;;13.13;6.25;;;16.10;99.90;;;;;;5081074;28;20044;-57
2023/08/20 03:25:05;;;;;;;11.05;6.30;;;16.10;99.90;;;;;;5079213;28;20048;-57
2023/08/20 03:27:31;;;;;;;14.32;5.50;;;16.00;99.90;;;;;;5063291;28;20048;-57
2023/08/20 03:29:56;;;;;;;12.18;6.55;;;16.10;99.90;;;;;;5079208;28;20069;-57
2023/08/20 03:32:23;;;;;;;12.75;6.50;;;16.00;99.90;;;;;;5080695;28;20036;-58
2023/08/20 03:34:49;;;;;;;12.80;6.72;;;16.10;99.90;;;;;;5079612;28;20158;-56
2023/08/20 03:37:14;;;;;;;12.80;6.40;;;16.10;99.90;;;;;;5080435;28;20040;-56
2023/08/20 03:39:40;;;;;;;10.25;6.03;;;16.00;99.90;;;;;;5080723;28;20567;-56
2023/08/20 03:42:06;;;;;;;13.10;6.30;;;16.00;99.90;;;;;;5060852;28;20625;-57
2023/08/20 03:44:31;;;;;;;11.63;7.30;;;16.10;99.90;;;;;;5081084;28;20139;-57
2023/08/20 03:46:57;;;;;;;11.40;6.38;;;16.00;99.90;;;;;;5078194;28;20057;-57
2023/08/20 03:49:23;;;;;;;14.82;6.88;;;16.00;99.90;;;;;;5080559;28;20096;-57
2023/08/20 03:51:48;;;;;;;12.75;6.97;;;16.00;99.90;;;;;;5078427;28;20190;-57
2023/08/20 03:54:14;;;;;;;13.20;6.90;;;16.00;99.90;;;;;;5080196;28;20037;-57
2023/08/20 03:56:40;;;;;;;11.27;6.63;;;15.90;99.90;;;;;;5094343;28;20047;-57
2023/08/20 03:59:05;;;;;;;12.35;6.90;;;16.00;99.90;;;;;;5099196;28;20040;-57
2023/08/20 04:01:31;;;;;;;13.98;6.70;;;16.10;99.90;;;;;;5100806;28;20056;-57
2023/08/20 04:03:57;;;;;;;13.63;7.47;;;16.00;99.90;;;;;;5098226;28;20525;-57
2023/08/20 04:06:22;;;;;;;11.35;7.00;;;16.00;99.90;;;;;;5100698;28;20048;-57
2023/08/20 04:08:48;;;;;;;13.60;6.60;;;16.10;99.90;;;;;;5098605;28;20554;-57
2023/08/20 04:11:14;;;;;;;10.70;6.75;;;16.00;99.90;;;;;;5100197;28;20124;-57
2023/08/20 04:13:42;;;;;;;13.50;6.70;;;15.90;99.90;;;;;;5099487;28;20040;-56
2023/08/20 04:16:08;;;;;;;14.75;7.20;;;15.90;99.90;;;;;;5098993;28;20585;-57
2023/08/20 04:18:34;;;;;;;13.35;7.28;;;15.90;99.90;;;;;;5100291;28;20062;-56
2023/08/20 04:21:00;;;;;;;14.30;7.10;;;15.90;99.90;;;;;;5098187;28;20455;-57
2023/08/20 04:23:26;;;;;;;12.82;7.07;;;15.90;99.90;;;;;;5081995;28;20063;-57
2023/08/20 04:25:52;;;;;;;15.05;6.93;;;15.90;99.90;;;;;;5098165;28;20055;-56
2023/08/20 04:28:17;;;;;;;11.30;6.40;;;15.90;99.90;;;;;;5099948;28;20220;-57
2023/08/20 04:30:46;;;;;;;11.95;7.03;;;16.00;99.90;;;;;;5098900;28;20054;-55
2023/08/20 04:33:12;;;;;;;13.18;7.63;;;15.90;99.90;;;;;;5098790;28;20081;-57
2023/08/20 04:35:37;;;;;;;11.32;7.00;;;15.80;99.90;;;;;;5100176;28;20044;-57
2023/08/20 04:38:03;;;;;;;15.05;7.30;;;16.00;99.90;;;;;;5098103;28;20087;-56
2023/08/20 04:40:29;;;;;;;12.50;7.20;;;15.90;99.90;;;;;;5099536;28;20040;-57
2023/08/20 04:42:55;;;;;;;13.10;7.28;;;15.90;99.90;;;;;;5097841;28;20095;-56
2023/08/20 04:45:20;;;;;;;14.07;6.88;;;15.90;99.90;;;;;;5099456;28;20070;-57
2023/08/20 04:47:47;;;;;;;11.63;6.65;;;16.00;99.90;;;;;;5098562;28;20368;-57
2023/08/20 04:50:15;;;;;;;17.50;7.00;;;16.00;99.90;;;;;;5098702;28;20489;-57
2023/08/20 04:52:41;;;;;;;11.43;6.93;;;16.00;99.90;;;;;;5099662;28;20044;-57
2023/08/20 04:55:07;;;;;;;13.55;6.88;;;16.00;99.90;;;;;;5096259;28;20040;-60
2023/08/20 04:57:33;;;;;;;11.77;6.60;;;16.00;99.90;;;;;;5079559;28;20033;-60
2023/08/20 04:59:59;;;;;;;13.45;6.97;;;16.00;99.90;;;;;;5077257;28;20079;-60
2023/08/20 05:02:25;;;;;;;13.15;7.18;;;15.90;99.90;;;;;;5079217;28;20488;-60
2023/08/20 05:04:51;;;;;;;11.50;6.80;;;16.00;99.90;;;;;;5077008;28;20078;-60
2023/08/20 05:07:17;;;;;;;12.52;7.03;;;16.10;99.90;;;;;;5078482;28;20075;-60
2023/08/20 05:09:42;;;;;;;12.32;6.45;;;16.20;99.90;;;;;;5095522;28;20506;-60
2023/08/20 05:12:08;;;;;;;14.00;6.47;;;16.10;99.90;;;;;;5097465;28;20067;-60
2023/08/20 05:14:34;;;;;;;14.95;6.50;;;16.20;99.90;;;;;;5099138;28;20032;-60
2023/08/20 05:17:00;;;;;;;13.95;6.15;;;16.20;99.90;;;;;;5097301;28;20126;-60
2023/08/20 05:19:25;;;;;;;10.52;5.90;;;16.40;99.90;;;;;;5099017;28;20044;-60
2023/08/20 05:21:55;;;;;;;12.70;5.60;;;16.30;99.90;;;;;;5097682;28;20044;-60
2023/08/20 05:24:22;;;;;;;14.38;5.93;;;16.40;99.90;;;;;;5098594;28;20066;-60
2023/08/20 05:26:49;;;;;;;13.35;6.35;;;16.60;99.90;;;;;;5098889;28;20044;-60
2023/08/20 05:29:15;;;;;;;12.00;5.53;;;16.50;99.90;;;;;;5097154;28;20044;-60
2023/08/20 05:31:40;;;;;;;12.68;6.22;;;16.60;99.90;;;;;;5099257;28;20055;-60
2023/08/20 05:34:06;;;;;;;13.38;5.70;;;16.70;99.90;;;;;;5096824;28;20044;-60
2023/08/20 05:36:32;;;;;;;10.70;4.97;;;16.80;99.90;;;;;;5098807;28;20062;-60
2023/08/20 05:38:57;;;;;;;13.63;6.55;;;16.90;99.90;;;;;;5097320;28;20036;-60
2023/08/20 05:41:23;;;;;;;13.85;5.88;;;16.90;99.90;;;;;;5098500;28;20047;-60
2023/08/20 05:43:49;;;;;;;12.35;5.45;;;17.10;99.90;;;;;;5098294;28;20074;-59
2023/08/20 05:46:14;;;;;;;12.43;5.53;;;17.00;99.90;;;;;;5097491;28;20040;-61
2023/08/20 05:48:40;;;;;;;12.52;5.20;;;17.20;99.90;;;;;;5099034;28;20059;-59
2023/08/20 05:51:06;;;;;;;11.57;5.10;;;17.20;99.90;;;;;;5096850;28;20048;-59
2023/08/20 05:53:31;;;;;;;11.70;5.00;;;17.30;99.90;;;;;;5098746;28;20040;-59
2023/08/20 05:55:57;;;;;;;10.48;5.07;;;17.20;99.90;;;;;;5085493;28;20044;-59
2023/08/20 05:58:23;;;;;;;10.68;5.03;;;17.30;99.90;;;;;;5074181;28;20048;-59
2023/08/20 06:00:48;;;;;;;12.73;5.63;;;17.40;99.90;;;;;;5055657;28;20059;-59
2023/08/20 06:03:14;;;;;;;14.75;5.80;;;17.40;99.90;;;;;;5055564;28;20055;-60
2023/08/20 06:05:40;;;;;;;11.00;5.15;;;17.30;99.90;;;;;;5074821;28;20061;-60
2023/08/20 06:08:06;;;;;;;12.15;5.50;;;17.50;99.90;;;;;;5071912;28;20092;-59
2023/08/20 06:10:31;;;;;;;13.32;6.13;;;17.60;99.90;;;;;;5074659;28;20110;-59
2023/08/20 06:12:57;;;;;;;14.23;5.65;;;17.60;99.90;;;;;;5072187;28;20045;-58
2023/08/20 06:15:23;;;;;;;15.95;6.47;;;17.80;99.90;;;;;;5076515;28;20040;-60
2023/08/20 06:17:51;;;;;;;14.82;5.93;;;17.80;99.90;;;;;;5077749;28;20097;-60
2023/08/20 06:20:18;;;;;;;15.10;6.25;;;17.80;99.90;;;;;;5076919;28;20060;-60
2023/08/20 06:22:44;;;;;;;13.13;5.07;;;17.90;99.90;;;;;;5078613;28;20037;-59
2023/08/20 06:25:09;;;;;;;11.63;5.53;;;17.90;99.90;;;;;;5076357;28;20046;-61
2023/08/20 06:27:35;;;;;;;14.27;5.25;;;18.10;99.90;;;;;;5078878;28;20047;-60
2023/08/20 06:30:01;;;;;;;11.90;5.13;;;18.20;99.90;;;;;;5076705;28;20052;-60
2023/08/20 06:32:26;;;;;;;12.68;5.25;;;18.10;99.90;;;;;;5059558;28;20048;-61
2023/08/20 06:34:52;;;;;;;17.30;5.68;;;18.30;99.90;;;;;;5077012;28;20040;-59
2023/08/20 06:37:17;;;;;;;12.63;5.25;;;18.40;99.90;;;;;;5077493;28;20056;-60
2023/08/20 06:39:43;;;;;;;12.98;5.38;;;18.40;99.90;;;;;;5078413;28;20051;-60
2023/08/20 06:42:09;;;;;;;12.95;5.65;;;18.40;99.90;;;;;;5076165;28;20052;-60
2023/08/20 06:44:35;;;;;;;11.98;5.45;;;18.50;99.90;;;;;;5077995;28;20442;-60
2023/08/20 06:47:01;;;;;;;12.90;5.95;;;18.60;99.90;;;;;;5076285;28;20540;-60
2023/08/20 06:49:27;;;;;;;16.40;5.40;;;18.50;99.90;;;;;;5077589;28;20049;-60
2023/08/20 06:51:52;;;;;;;13.82;5.43;;;18.60;99.90;;;;;;5076505;28;20053;-60
2023/08/20 06:54:18;;;;;;;18.50;6.22;;;18.50;99.90;;;;;;5058520;28;20060;-60
2023/08/20 06:56:44;;;;;;;13.10;5.75;;;18.60;99.90;;;;;;5091669;28;20043;-60
2023/08/20 06:59:10;;;;;;;12.07;5.20;;;18.70;99.90;;;;;;5096274;28;20060;-60
2023/08/20 07:01:36;;;;;;;14.15;5.10;;;18.70;99.90;;;;;;5098149;28;20052;-60
2023/08/20 07:04:02;;;;;;;15.20;5.63;;;18.70;99.90;;;;;;5095763;28;20032;-60
2023/08/20 07:06:28;;;;;;;13.52;6.18;;;18.90;99.90;;;;;;5097723;28;20581;-60
2023/08/20 07:08:53;;;;;;;15.70;5.90;;;19.00;99.90;;;;;;5095833;28;20060;-61
2023/08/20 07:11:19;;;;;;;16.17;5.80;;;19.10;99.90;;;;;;5096537;28;20055;-62
2023/08/20 07:13:45;;;;;;;12.32;5.35;;;19.20;99.90;;;;;;5097071;28;20453;-61
2023/08/20 07:16:11;;;;;;;12.18;5.25;;;19.10;99.90;;;;;;5077772;28;20045;-61
2023/08/20 07:18:37;;;;;;;13.68;4.82;;;19.20;99.90;;;;;;5097587;28;20082;-62
2023/08/20 07:21:02;;;;;;;15.23;5.82;;;19.40;99.90;;;;;;5094684;28;20416;-60
2023/08/20 07:23:28;;;;;;;16.05;5.43;;;19.40;99.90;;;;;;5097350;28;20102;-60
2023/08/20 07:26:09;;;;;;;12.43;4.40;;;19.50;99.90;;;;;;5095174;28;20139;-60
2023/08/20 07:31:20;;;;;;;12.75;5.47;;;19.60;99.90;;;;;;5096984;28;20590;-60
2023/08/20 07:33:47;;;;;;;12.50;5.28;;;19.70;99.90;;;;;;5095229;28;20493;-58
2023/08/20 07:36:14;;;;;;;18.55;5.10;;;19.70;99.90;;;;;;5078878;28;20058;-60
2023/08/20 07:38:42;;;;;;;11.75;4.97;;;19.90;99.90;;;;;;5095658;28;20115;-61
2023/08/20 07:41:08;;;;;;;12.10;4.75;;;20.10;99.90;;;;;;5097278;28;20036;-60
2023/08/20 07:43:34;;;;;;;13.38;4.75;;;20.10;99.90;;;;;;5089290;28;20048;-60
2023/08/20 07:46:00;;;;;;;15.82;5.25;;;20.20;99.90;;;;;;5094903;28;20059;-59
2023/08/20 07:48:26;;;;;;;12.80;4.47;;;20.00;99.90;;;;;;5078454;28;20035;-60
2023/08/20 07:50:51;;;;;;;15.15;4.95;;;20.10;99.90;;;;;;5076309;28;20101;-60
2023/08/20 07:53:17;;;;;;;14.20;4.63;;;20.20;99.90;;;;;;5097050;28;20062;-60
2023/08/20 07:55:44;;;;;;;16.17;4.97;;;20.20;99.90;;;;;;5086887;28;20131;-60
2023/08/20 07:58:09;;;;;;;14.27;4.38;;;20.30;99.90;;;;;;5076482;28;20036;-60
2023/08/20 08:00:35;;;;;;;12.73;4.47;;;20.30;99.90;;;;;;5075173;28;20078;-60
2023/08/20 08:03:01;;;;;;;15.80;4.57;;;20.40;99.90;;;;;;5075650;28;20322;-60
2023/08/20 08:05:26;;;;;;;15.43;4.30;;;20.50;99.90;;;;;;5075920;28;20048;-60
2023/08/20 08:07:52;;;;;;;13.32;4.40;;;20.60;99.90;;;;;;5074140;28;20523;-60
2023/08/20 08:10:18;;;;;;;17.13;6.07;;;20.70;99.90;;;;;;5076526;28;20043;-60
2023/08/20 08:12:43;;;;;;;16.33;5.03;;;20.70;99.90;;;;;;5074313;28;20078;-60
2023/08/20 08:15:09;;;;;;;13.25;4.47;;;20.80;99.90;;;;;;5076410;28;20431;-60
2023/08/20 08:17:35;;;;;;;15.52;4.35;;;20.80;99.90;;;;;;5075122;28;20659;-60
2023/08/20 08:20:00;;;;;;;13.32;4.70;;;21.00;99.90;;;;;;5074651;28;20049;-60
2023/08/20 08:22:26;;;;;;;15.60;4.22;;;21.00;99.90;;;;;;5076003;28;20511;-60
2023/08/20 08:24:52;;;;;;;10.68;4.07;;;21.00;99.90;;;;;;5083410;28;20159;-60
2023/08/20 08:27:17;;;;;;;12.68;3.72;;;21.00;99.90;;;;;;5096516;28;20047;-60
2023/08/20 08:29:44;;;;;;;12.15;3.83;;;21.00;99.90;;;;;;5094386;28;20040;-60
2023/08/20 08:32:10;;;;;;;11.52;3.22;;;21.10;99.90;;;;;;5095720;28;20099;-60
2023/08/20 08:34:35;;;;;;;10.52;3.03;;;21.10;99.90;;;;;;5094647;28;20077;-60
2023/08/20 08:37:01;;;;;;;13.52;3.20;;;21.30;99.90;;;;;;5095621;28;20055;-60
2023/08/20 08:39:27;;;;;;;13.77;3.55;;;21.30;99.90;;;;;;5094656;28;20389;-60
2023/08/20 08:42:01;;;;;;;13.50;3.85;;;21.30;99.90;;;;;;5094325;28;20056;-60
2023/08/20 08:44:28;;;;;;;8.45;2.53;;;21.30;99.90;;;;;;5088429;28;20119;-58
2023/08/20 08:46:54;;;;;;;9.30;2.80;;;21.50;99.90;;;;;;5081338;28;20507;-58
2023/08/20 08:49:19;;;;;;;14.30;3.28;;;21.50;99.90;;;;;;5085418;28;20047;-59
2023/08/20 08:51:46;;;;;;;13.20;2.85;;;21.60;99.90;;;;;;5061097;28;20048;-59
2023/08/20 08:54:14;;;;;;;11.82;3.47;;;21.50;99.90;;;;;;5074905;28;20049;-59
2023/08/20 08:56:40;;;;;;;9.23;1.98;;;21.30;99.90;;;;;;5089170;28;20510;-58
2023/08/20 08:59:14;;;;;;;11.40;2.90;;;21.40;99.80;;;;;;5136750;27;20396;-60
2023/08/20 09:01:41;;;;;;;14.60;2.70;;;21.50;98.00;;;;;;5135943;28;20448;-60
2023/08/20 09:04:07;;;;;;;11.15;2.78;;;21.40;95.20;;;;;;5135546;27;20066;-60
2023/08/20 09:06:49;;;;;;;9.73;2.53;;;21.50;96.80;;;;;;5137029;28;20047;-60
2023/08/20 09:09:17;;;;;;;12.00;2.90;;;21.60;92.40;;;;;;5134091;27;20067;-60
2023/08/20 09:11:43;;;;;;;14.52;3.13;;;21.70;95.00;;;;;;5135054;28;20075;-60
2023/08/20 09:14:20;;;;;;;10.93;2.90;;;21.70;95.70;;;;;;5134981;27;20054;-59
2023/08/20 09:16:47;;;;;;;9.90;2.40;;;21.50;94.10;;;;;;5135451;27;20051;-59
2023/08/20 09:19:12;;;;;;;12.07;2.80;;;21.70;96.40;;;;;;5135947;27;20035;-60
2023/08/20 09:21:38;;;;;;;11.65;2.80;;;21.70;92.80;;;;;;5134533;28;20105;-59
2023/08/20 09:24:04;;;;;;;10.65;2.53;;;21.80;96.50;;;;;;5136350;28;20043;-59
2023/08/20 09:26:29;;;;;;;9.82;2.40;;;21.50;94.20;;;;;;5134265;27;20047;-59
2023/08/20 09:28:58;;;;;;;5.90;2.25;;;21.30;93.40;;;;;;5136276;28;20051;-59
2023/08/20 09:31:38;;;;;;;9.48;2.33;;;21.40;95.20;;;;;;5134786;27;20039;-59
2023/08/20 09:34:04;;;;;;;9.85;2.25;;;21.70;92.60;;;;;;5134854;27;20073;-60
2023/08/20 09:36:34;;;;;;;10.50;2.25;;;21.80;92.20;;;;;;5136081;27;20573;-59
2023/08/20 09:39:04;;;;;;;13.27;2.72;;;22.00;92.20;;;;;;5132371;28;20048;-60
2023/08/20 09:41:30;;;;;;;12.07;2.72;;;22.20;91.70;;;;;;5135566;28;20411;-60
2023/08/20 09:43:59;;;;;;;10.27;2.45;;;22.30;90.80;;;;;;5133631;27;20528;-60
2023/08/20 09:46:27;;;;;;;12.77;2.70;;;22.20;81.70;;;;;;5136179;27;20104;-59
2023/08/20 09:48:57;;;;;;;9.18;2.50;;;21.90;81.80;;;;;;5135339;27;20035;-60
2023/08/20 09:51:26;;;;;;;10.15;2.78;;;21.80;87.10;;;;;;5134096;27;20043;-60
2023/08/20 09:54:13;;;;;;;8.45;2.03;;;21.90;90.20;;;;;;5135672;27;20050;-60
2023/08/20 09:56:40;;;;;;;13.10;2.55;;;21.80;80.40;;;;;;5127653;27;21063;-60
2023/08/20 09:59:07;;;;;;;8.60;2.22;;;22.00;83.80;;;;;;5131433;28;20074;-60
2023/08/20 10:01:34;;;;;;;11.00;1.85;;;22.00;75.00;;;;;;5134698;27;20099;-59
2023/08/20 10:04:00;;;;;;;8.38;1.58;;;22.30;80.70;;;;;;5133926;27;20100;-59
2023/08/20 10:06:26;;;;;;;8.60;2.05;;;22.50;80.90;;;;;;5135689;27;20043;-60
2023/08/20 10:08:53;;;;;;;11.13;2.08;;;22.60;72.00;;;;;;5129126;27;20517;-60
2023/08/20 10:11:18;;;;;;;7.68;2.08;;;22.50;71.50;;;;;;5121664;28;20039;-59
2023/08/20 10:13:44;;;;;;;7.47;1.50;;;22.70;69.30;;;;;;5120115;28;20080;-60
2023/08/20 10:16:13;;;;;;;8.68;2.65;;;22.90;58.60;;;;;;5121938;28;20761;-60
2023/08/20 10:18:39;;;;;;;5.68;1.85;;;22.80;49.20;;;;;;5119521;28;20085;-59
2023/08/20 10:21:08;;;;;;;11.32;2.17;;;22.80;48.40;;;;;;5119128;28;20077;-61
2023/08/20 10:23:33;;;;;;;7.00;1.42;;;23.00;55.20;;;;;;5121547;28;20047;-60
2023/08/20 10:26:10;;;;;;;7.35;1.58;;;23.30;59.20;;;;;;5119599;28;20044;-60
2023/08/20 10:28:36;;;;;;;10.18;1.92;;;23.50;58.10;;;;;;5121210;28;20145;-60
2023/08/20 10:31:09;;;;;;;8.65;1.67;;;23.40;59.50;;;;;;5119438;28;20059;-61
2023/08/20 10:33:50;;;;;;;9.65;2.10;;;23.40;50.80;;;;;;5120423;28;20047;-60
2023/08/20 10:36:22;;;;;;;10.25;1.73;;;22.60;47.20;;;;;;5114533;28;20043;-60
2023/08/20 10:38:50;;;;;;;6.45;1.60;;;22.50;55.10;;;;;;5118786;28;20047;-57
2023/08/20 10:41:18;;;;;;;8.07;1.42;;;22.60;53.50;;;;;;5119906;28;20040;-60
2023/08/20 10:43:51;;;;;;;9.23;1.70;;;22.90;50.10;;;;;;5112963;28;20134;-60
2023/08/20 10:46:22;;;;;;;8.27;1.77;;;23.10;51.90;;;;;;5114181;28;20041;-60
2023/08/20 10:48:51;;;;;;;8.07;1.73;;;23.10;53.20;;;;;;5120568;28;20039;-60
2023/08/20 10:51:24;;;;;;;10.00;2.03;;;23.40;48.50;;;;;;5118674;28;20095;-60
2023/08/20 10:54:03;;;;;;;8.88;1.90;;;23.40;43.90;;;;;;5120810;28;20065;-60
2023/08/20 10:56:45;;;;;;;9.30;1.90;;;23.10;42.00;;;;;;5105379;28;20404;-60
2023/08/20 10:59:16;;;;;;;7.78;1.50;;;23.20;40.50;;;;;;5099777;28;20085;-60
2023/08/20 11:01:45;;;;;;;9.27;1.98;;;22.70;44.60;;;;;;5099971;28;20079;-59
2023/08/20 11:04:11;;;;;;;8.88;1.45;;;22.50;47.20;;;;;;5098718;28;20042;-60
2023/08/20 11:06:39;;;;;;;7.80;1.70;;;22.90;45.80;;;;;;5100013;28;20104;-60
2023/08/20 11:09:05;;;;;;;7.63;1.30;;;22.80;46.30;;;;;;5097734;28;20055;-60
2023/08/20 11:11:32;;;;;;;8.50;1.73;;;23.10;47.80;;;;;;5098905;28;20079;-60
2023/08/20 11:14:05;;;;;;;6.78;2.00;;;23.30;44.50;;;;;;5098006;28;20104;-60
2023/08/20 11:16:31;;;;;;;5.38;1.40;;;23.20;33.70;;;;;;5099528;28;20473;-60
2023/08/20 11:18:57;;;;;;;10.38;1.58;;;23.30;48.60;;;;;;5098952;28;20040;-59
2023/08/20 11:21:23;;;;;;;8.82;2.45;;;23.00;44.00;;;;;;5096507;28;20059;-60
2023/08/20 11:23:49;;;;;;;7.13;1.60;;;23.10;46.70;;;;;;5099798;28;20052;-60
2023/08/20 11:26:15;;;;;;;6.88;1.83;;;23.50;44.50;;;;;;5097653;28;20549;-60
2023/08/20 11:28:46;;;;;;;7.50;1.90;;;23.60;30.10;;;;;;5099914;28;20082;-60
2023/08/20 11:31:12;;;;;;;7.13;1.65;;;23.70;32.70;;;;;;5096619;28;20075;-60
2023/08/20 11:33:38;;;;;;;6.25;1.30;;;23.70;30.00;;;;;;5098976;28;20532;-60
2023/08/20 11:36:07;;;;;;;9.63;1.85;;;23.90;28.70;;;;;;5099096;28;20036;-60
2023/08/20 11:38:33;;;;;;;7.97;1.55;;;23.70;26.80;;;;;;5098010;28;20058;-59
2023/08/20 11:40:59;;;;;;;6.25;1.42;;;23.80;27.40;;;;;;5099852;28;20060;-60
2023/08/20 11:43:27;;;;;;;6.38;1.30;;;23.80;24.10;;;;;;5097473;28;20044;-61
2023/08/20 11:45:54;;;;;;;6.85;1.50;;;23.70;27.80;;;;;;5104166;28;20101;-60
2023/08/20 11:48:23;;;;;;;6.90;1.65;;;23.60;28.00;;;;;;5105509;28;20047;-60
2023/08/20 11:50:52;;;;;;;6.22;1.23;;;23.50;26.50;;;;;;5107467;28;20046;-60
2023/08/20 11:53:25;;;;;;;8.00;1.42;;;23.40;29.60;;;;;;5099358;28;20044;-59
2023/08/20 11:55:50;;;;;;;7.78;1.40;;;23.50;30.80;;;;;;5104339;28;20079;-60
2023/08/20 11:58:19;;;;;;;7.88;1.75;;;23.40;26.90;;;;;;5119148;27;20414;-60
2023/08/20 12:00:49;;;;;;;5.32;1.08;;;23.60;19.70;;;;;;5115831;28;20438;-60
2023/08/20 12:03:14;;;;;;;7.32;1.45;;;23.50;11.40;;;;;;5117252;28;20090;-60
2023/08/20 12:05:42;;;;;;;6.15;1.23;;;23.40;18.10;;;;;;5116854;28;20055;-60
2023/08/20 12:08:07;;;;;;;6.93;1.67;;;23.80;23.80;;;;;;5117462;28;20054;-60
2023/08/20 12:10:34;;;;;;;6.25;1.55;;;23.90;16.90;;;;;;5118047;28;20044;-60
2023/08/20 12:12:59;;;;;;;5.32;1.45;;;23.90;19.30;;;;;;5116237;28;20047;-60
2023/08/20 12:15:25;;;;;;;9.00;1.80;;;24.10;23.90;;;;;;5118170;28;20587;-60
2023/08/20 12:18:08;;;;;;;8.10;1.48;;;24.00;15.60;;;;;;5114171;28;20054;-60
2023/08/20 12:20:35;;;;;;;6.00;1.13;;;23.80;15.80;;;;;;5110993;28;20159;-60
2023/08/20 12:23:03;;;;;;;5.88;1.20;;;23.70;19.00;;;;;;5104576;28;20072;-60
2023/08/20 12:25:32;;;;;;;5.10;1.20;;;23.70;21.60;;;;;;5105173;28;20099;-60
2023/08/20 12:27:57;;;;;;;6.35;1.40;;;23.70;22.50;;;;;;5106560;28;20036;-61
2023/08/20 12:30:23;;;;;;;9.88;1.60;;;23.80;31.70;;;;;;5111508;28;20042;-60
2023/08/20 12:32:49;;;;;;;5.80;1.33;;;23.80;34.40;;;;;;5117061;28;20055;-60
2023/08/20 12:35:14;;;;;;;7.72;1.30;;;24.10;22.20;;;;;;5105691;28;20113;-60
2023/08/20 12:37:43;;;;;;;5.22;1.15;;;24.20;18.80;;;;;;5097278;28;20043;-60
2023/08/20 12:40:10;;;;;;;6.75;1.58;;;24.40;23.20;;;;;;5096347;28;20036;-60
2023/08/20 12:42:39;;;;;;;6.82;1.48;;;24.00;25.90;;;;;;5096437;28;20661;-60